aviador You're here:

KGAF Decoded Metar

in
Report Time2018-06-24 06:55:00
UTC Time2018-06-24 06:57:08
Flight Rules vfr VFR
Wind070° at 04 kt
W.Decomp.*RWY 08: 3.9 kt HW 0.7 kt LCW
RWY 35: 0.7 kt HW 3.9 kt RCW
W.Rank070° ranks 35
Current wind is below 070° avg. (6.9)
Visibility9999 m
Phenomena:N/A
Clouds:N/A
CeilingNone
Temp17°C
Dew Point17°C (100% RH)
QNH1010 hPa
Raw Report
METAR KGAF 240655Z AUTO 07004KT 10SM CLR 17/17 A2983 RMK AO2 PWINO=

Extra information for KGAF:More info

Social comments